Time;durP1;ratioP1;P1;durP2;ratioP2;P2;SDS_P1;SDS_P2;PMS_P1;PMS_P2;Temp;Humidity;BMP_temperature;BMP_pressure;BME280_temperature;BME280_humidity;BME280_pressure;Samples;Min_cycle;Max_cycle;Signal;HPM_P1;HPM_P2
2023/10/01 00:00:11;;;;;;;0.38;0.38;;;16.00;99.90;;;;;;5009071;28;20050;-64
2023/10/01 00:02:37;;;;;;;0.10;0.10;;;16.00;99.90;;;;;;5005950;28;20090;-64
2023/10/01 00:05:05;;;;;;;1.15;0.80;;;16.00;99.90;;;;;;5000772;28;20153;-64
2023/10/01 00:07:31;;;;;;;0.00;0.00;;;16.00;99.90;;;;;;5002923;28;20483;-64
2023/10/01 00:09:56;;;;;;;0.30;0.30;;;16.00;99.90;;;;;;5007306;28;20053;-64
2023/10/01 00:12:23;;;;;;;0.03;0.03;;;16.00;99.90;;;;;;5002440;28;20509;-64
2023/10/01 00:14:52;;;;;;;0.08;0.08;;;16.00;99.90;;;;;;5006776;28;20678;-64
2023/10/01 00:17:21;;;;;;;0.00;0.00;;;16.00;99.90;;;;;;4999779;28;20061;-64
2023/10/01 00:19:46;;;;;;;0.10;0.10;;;16.00;99.90;;;;;;5004293;28;20034;-64
2023/10/01 00:22:12;;;;;;;0.60;0.55;;;16.00;99.90;;;;;;5000787;28;20045;-64
2023/10/01 00:24:37;;;;;;;2.17;0.65;;;16.00;99.90;;;;;;5009776;28;20101;-64
2023/10/01 00:27:08;;;;;;;0.10;0.10;;;16.00;99.90;;;;;;5004154;28;20092;-64
2023/10/01 00:29:33;;;;;;;0.00;0.00;;;16.00;99.90;;;;;;5000643;28;20065;-65
2023/10/01 00:31:59;;;;;;;0.28;0.13;;;16.10;99.90;;;;;;5008891;28;20045;-64
2023/10/01 00:34:25;;;;;;;0.30;0.30;;;16.00;99.90;;;;;;4999148;28;20494;-64
2023/10/01 00:36:52;;;;;;;0.73;0.73;;;16.10;99.90;;;;;;4997515;28;20449;-64
2023/10/01 00:39:18;;;;;;;0.10;0.10;;;16.00;99.90;;;;;;5005463;28;20080;-64
2023/10/01 00:41:44;;;;;;;0.00;0.00;;;16.10;99.90;;;;;;5005492;28;20093;-64
2023/10/01 00:44:11;;;;;;;0.17;0.17;;;16.10;99.90;;;;;;5002509;28;20046;-64
2023/10/01 00:46:37;;;;;;;0.00;0.00;;;16.10;99.90;;;;;;5005189;28;20045;-64
2023/10/01 00:49:04;;;;;;;1.08;0.98;;;16.00;99.90;;;;;;5009134;28;20042;-64
2023/10/01 00:51:32;;;;;;;2.45;1.10;;;16.00;99.90;;;;;;4993483;28;20445;-64
2023/10/01 00:54:01;;;;;;;0.20;0.20;;;16.00;99.90;;;;;;5005531;28;20050;-64
2023/10/01 00:56:28;;;;;;;0.00;0.00;;;16.00;99.90;;;;;;5010303;28;20069;-64
2023/10/01 00:58:53;;;;;;;0.30;0.30;;;16.10;99.90;;;;;;5004594;28;20076;-64
2023/10/01 01:01:23;;;;;;;0.05;0.05;;;16.00;99.90;;;;;;5003564;28;20041;-64
2023/10/01 01:03:52;;;;;;;0.20;0.20;;;16.00;99.90;;;;;;5006924;28;20057;-64
2023/10/01 01:06:23;;;;;;;0.40;0.40;;;16.00;99.90;;;;;;5006378;28;20061;-63
2023/10/01 01:08:54;;;;;;;0.65;0.65;;;16.00;99.90;;;;;;4996642;28;20096;-64
2023/10/01 01:11:26;;;;;;;0.65;0.65;;;16.00;99.90;;;;;;5002562;28;20103;-64
2023/10/01 01:13:51;;;;;;;0.65;0.65;;;16.10;99.90;;;;;;5008333;28;20096;-64
2023/10/01 01:16:19;;;;;;;0.80;0.70;;;16.10;99.90;;;;;;4997975;28;20210;-64
2023/10/01 01:18:47;;;;;;;0.15;0.15;;;16.10;99.90;;;;;;5004331;28;20042;-64
2023/10/01 01:21:13;;;;;;;0.00;0.00;;;16.10;99.90;;;;;;5008328;28;20130;-64
2023/10/01 01:23:45;;;;;;;2.78;0.75;;;16.10;99.90;;;;;;5002483;28;20042;-64
2023/10/01 01:26:14;;;;;;;0.00;0.00;;;16.10;99.90;;;;;;5001983;28;20080;-64
2023/10/01 01:28:41;;;;;;;1.35;1.10;;;16.00;99.90;;;;;;5007681;28;20052;-64
2023/10/01 01:31:10;;;;;;;0.98;0.95;;;16.00;99.90;;;;;;5004661;28;20116;-64
2023/10/01 01:33:44;;;;;;;0.05;0.05;;;16.00;99.90;;;;;;5008635;28;20117;-64
2023/10/01 01:36:12;;;;;;;0.03;0.03;;;16.00;99.90;;;;;;5015486;28;20053;-64
2023/10/01 01:39:10;;;;;;;0.30;0.30;;;16.00;99.90;;;;;;4998213;28;20049;-64
2023/10/01 01:41:48;;;;;;;0.00;0.00;;;16.00;99.90;;;;;;4996624;28;20050;-64
2023/10/01 01:44:14;;;;;;;0.03;0.03;;;16.00;99.90;;;;;;4997825;28;20053;-64
2023/10/01 01:46:59;;;;;;;0.00;0.00;;;16.00;99.90;;;;;;4996227;28;20085;-64
2023/10/01 01:49:25;;;;;;;0.25;0.25;;;16.00;99.90;;;;;;5009121;28;20034;-64
2023/10/01 01:52:03;;;;;;;2.45;1.75;;;15.90;99.90;;;;;;5004425;28;20121;-64
2023/10/01 01:54:34;;;;;;;0.13;0.13;;;16.00;99.90;;;;;;5004943;28;20089;-64
2023/10/01 01:57:01;;;;;;;1.17;0.80;;;15.90;99.90;;;;;;5002825;28;20074;-64
2023/10/01 01:59:30;;;;;;;0.28;0.28;;;15.90;99.90;;;;;;5006485;28;20511;-64
2023/10/01 02:01:56;;;;;;;0.00;0.00;;;15.90;99.90;;;;;;5003492;28;20049;-64
2023/10/01 02:04:25;;;;;;;0.00;0.00;;;15.90;99.90;;;;;;5007295;28;20477;-64
2023/10/01 02:06:51;;;;;;;0.85;0.85;;;15.90;99.90;;;;;;4993335;28;20496;-63
2023/10/01 02:09:24;;;;;;;0.10;0.10;;;15.90;99.90;;;;;;4992136;28;20193;-64
2023/10/01 02:11:50;;;;;;;0.08;0.08;;;15.90;99.90;;;;;;5005004;28;20060;-64
2023/10/01 02:14:31;;;;;;;0.85;0.73;;;16.00;99.90;;;;;;5009798;28;20044;-64
2023/10/01 02:17:03;;;;;;;0.00;0.00;;;15.90;99.90;;;;;;4998596;28;20049;-64
2023/10/01 02:19:29;;;;;;;0.10;0.10;;;15.90;99.90;;;;;;5005428;28;20049;-64
2023/10/01 02:22:05;;;;;;;0.20;0.20;;;15.90;99.90;;;;;;4998694;28;20042;-64
2023/10/01 02:24:45;;;;;;;0.00;0.00;;;15.90;99.90;;;;;;4997166;28;20125;-64
2023/10/01 02:27:16;;;;;;;0.57;0.28;;;15.80;99.90;;;;;;5004637;28;20160;-64
2023/10/01 02:30:24;;;;;;;0.75;0.75;;;15.80;99.90;;;;;;5012949;28;20107;-64
2023/10/01 02:32:31;;;;;;;2.25;0.85;;;15.80;99.90;;;;;;4991245;28;20489;-64
2023/10/01 02:34:57;;;;;;;0.00;0.00;;;15.80;99.90;;;;;;5007187;28;20046;-64
2023/10/01 02:37:29;;;;;;;0.00;0.00;;;15.80;99.90;;;;;;4994698;28;20486;-64
2023/10/01 02:39:59;;;;;;;0.32;0.25;;;15.80;99.90;;;;;;5008322;28;20049;-64
2023/10/01 02:42:27;;;;;;;0.20;0.20;;;15.80;99.90;;;;;;5009617;28;20042;-64
2023/10/01 02:44:53;;;;;;;2.35;0.38;;;15.80;99.90;;;;;;4998073;28;20047;-64
2023/10/01 02:47:20;;;;;;;0.05;0.05;;;15.80;99.90;;;;;;5018516;28;20525;-64
2023/10/01 02:49:53;;;;;;;0.00;0.00;;;15.80;99.90;;;;;;5006079;28;20074;-64
2023/10/01 02:52:25;;;;;;;0.00;0.00;;;15.80;99.90;;;;;;5007320;28;20072;-64
2023/10/01 02:54:56;;;;;;;0.00;0.00;;;15.90;99.90;;;;;;5012510;28;20505;-64
2023/10/01 02:57:25;;;;;;;0.35;0.35;;;15.80;99.90;;;;;;5007188;28;20460;-64
2023/10/01 03:02:53;;;;;;;0.73;0.30;;;15.80;99.90;;;;;;4998075;28;20140;-64
2023/10/01 03:05:28;;;;;;;0.10;0.10;;;15.90;99.90;;;;;;5003509;28;20042;-66
2023/10/01 03:08:03;;;;;;;0.00;0.00;;;15.90;99.90;;;;;;5005729;28;20042;-64
2023/10/01 03:10:31;;;;;;;0.55;0.43;;;15.90;99.90;;;;;;5002783;28;20547;-64
2023/10/01 03:12:59;;;;;;;0.63;0.47;;;15.90;99.90;;;;;;4995762;28;20050;-64
2023/10/01 03:15:27;;;;;;;0.45;0.45;;;15.90;99.90;;;;;;5008319;28;20061;-64
2023/10/01 03:17:57;;;;;;;0.00;0.00;;;15.90;99.90;;;;;;4995364;28;20081;-64
2023/10/01 03:23:11;;;;;;;0.10;0.10;;;16.00;99.90;;;;;;4999758;28;20446;-65
2023/10/01 03:25:42;;;;;;;0.00;0.00;;;15.90;99.90;;;;;;5012224;28;20038;-64
2023/10/01 03:28:27;;;;;;;0.65;0.65;;;16.00;99.90;;;;;;5001316;28;20060;-64
2023/10/01 03:31:09;;;;;;;0.73;0.73;;;16.00;99.90;;;;;;5006635;28;20053;-64
2023/10/01 03:33:39;;;;;;;0.25;0.25;;;16.00;99.90;;;;;;5006480;28;20042;-64
2023/10/01 03:36:09;;;;;;;0.63;0.55;;;16.00;99.90;;;;;;5006207;28;20045;-64
2023/10/01 03:38:39;;;;;;;0.00;0.00;;;16.00;99.90;;;;;;4999617;28;20508;-64
2023/10/01 03:41:20;;;;;;;0.00;0.00;;;16.00;99.90;;;;;;5004754;28;20181;-64
2023/10/01 03:43:47;;;;;;;0.30;0.30;;;16.00;99.90;;;;;;5005559;28;20045;-64
2023/10/01 03:46:15;;;;;;;0.10;0.10;;;15.90;99.90;;;;;;5005841;28;20073;-64
2023/10/01 03:49:00;;;;;;;0.35;0.35;;;16.00;99.90;;;;;;5001880;28;20060;-64
2023/10/01 03:57:11;;;;;;;0.65;0.65;;;16.00;99.90;;;;;;5007911;28;20453;-64
2023/10/01 03:59:37;;;;;;;0.28;0.28;;;16.00;99.90;;;;;;4996683;28;20034;-64
2023/10/01 04:02:27;;;;;;;0.15;0.15;;;16.00;99.90;;;;;;4993732;28;20050;-64
2023/10/01 04:04:57;;;;;;;0.10;0.10;;;16.00;99.90;;;;;;5004255;28;20497;-64
2023/10/01 04:07:45;;;;;;;0.00;0.00;;;16.00;99.90;;;;;;5002312;28;20157;-64
2023/10/01 04:10:13;;;;;;;0.10;0.10;;;16.10;99.90;;;;;;5006261;28;20038;-64
2023/10/01 04:12:44;;;;;;;1.27;0.15;;;16.00;99.90;;;;;;5002017;28;20328;-64
2023/10/01 04:15:27;;;;;;;0.20;0.20;;;16.10;99.90;;;;;;5007567;28;20054;-64
2023/10/01 04:18:09;;;;;;;1.25;0.88;;;16.00;99.90;;;;;;5023176;28;20054;-65
2023/10/01 04:20:36;;;;;;;0.10;0.10;;;16.10;99.90;;;;;;4998862;28;20072;-64
2023/10/01 04:23:04;;;;;;;0.10;0.10;;;16.10;99.90;;;;;;5005889;28;20074;-64
2023/10/01 04:25:38;;;;;;;1.20;0.95;;;16.10;99.90;;;;;;5001425;28;20092;-64
2023/10/01 04:28:08;;;;;;;0.00;0.00;;;16.10;99.90;;;;;;5001321;28;20101;-64
2023/10/01 04:30:34;;;;;;;0.00;0.00;;;16.00;99.90;;;;;;4998174;28;20116;-64
2023/10/01 04:33:16;;;;;;;0.08;0.08;;;16.00;99.90;;;;;;4999648;28;20061;-64
2023/10/01 04:35:51;;;;;;;0.10;0.10;;;16.00;99.90;;;;;;5005547;28;20401;-64
2023/10/01 04:38:22;;;;;;;0.30;0.30;;;16.00;99.90;;;;;;5001560;28;20049;-64
2023/10/01 04:40:49;;;;;;;0.25;0.25;;;16.00;99.90;;;;;;5007229;28;20120;-64
2023/10/01 04:43:20;;;;;;;0.22;0.22;;;16.00;99.90;;;;;;5016457;28;20073;-64
2023/10/01 04:45:52;;;;;;;0.00;0.00;;;15.90;99.90;;;;;;5002131;28;20057;-64
2023/10/01 04:48:25;;;;;;;0.05;0.05;;;15.90;99.90;;;;;;4999694;28;20537;-64
2023/10/01 04:50:55;;;;;;;0.10;0.10;;;15.90;99.90;;;;;;5002672;28;20788;-64
2023/10/01 04:53:25;;;;;;;0.00;0.00;;;15.90;99.90;;;;;;5001523;28;20054;-64
2023/10/01 04:56:01;;;;;;;5.25;0.45;;;15.80;99.90;;;;;;5007573;28;20060;-64
2023/10/01 04:58:32;;;;;;;0.57;0.57;;;15.80;99.90;;;;;;5007573;28;20049;-64
2023/10/01 05:00:58;;;;;;;0.00;0.00;;;15.80;99.90;;;;;;4990170;28;20402;-64
2023/10/01 05:03:40;;;;;;;0.05;0.05;;;15.80;99.90;;;;;;4999107;28;20054;-64
2023/10/01 05:06:19;;;;;;;0.00;0.00;;;15.80;99.90;;;;;;5009478;28;20046;-64
2023/10/01 05:08:47;;;;;;;0.00;0.00;;;15.80;99.90;;;;;;5002678;28;20033;-63
2023/10/01 05:11:16;;;;;;;0.03;0.03;;;15.80;99.90;;;;;;5002647;28;20050;-64
2023/10/01 05:13:43;;;;;;;0.85;0.40;;;15.70;99.90;;;;;;5005595;28;21574;-64
2023/10/01 05:16:13;;;;;;;0.45;0.32;;;15.70;99.90;;;;;;4999782;28;20046;-64
2023/10/01 05:18:43;;;;;;;0.00;0.00;;;15.70;99.90;;;;;;5002822;28;20493;-64
2023/10/01 05:21:21;;;;;;;0.65;0.47;;;15.70;99.90;;;;;;4996704;28;20042;-64
2023/10/01 05:23:48;;;;;;;0.00;0.00;;;15.70;99.90;;;;;;4995253;28;20481;-64
2023/10/01 05:26:20;;;;;;;0.52;0.52;;;15.70;99.90;;;;;;4999630;28;20084;-64
2023/10/01 05:28:48;;;;;;;1.83;1.17;;;15.60;99.90;;;;;;4998545;28;20081;-64
2023/10/01 05:31:14;;;;;;;0.20;0.20;;;15.60;99.90;;;;;;4998973;28;20058;-64
2023/10/01 05:33:46;;;;;;;0.60;0.60;;;15.70;99.90;;;;;;4998789;28;20073;-64
2023/10/01 05:36:16;;;;;;;0.00;0.00;;;15.60;99.90;;;;;;5008210;28;20457;-64
2023/10/01 05:38:44;;;;;;;1.27;1.17;;;15.60;99.90;;;;;;5004178;28;20081;-63
2023/10/01 05:41:13;;;;;;;0.70;0.70;;;15.60;99.90;;;;;;5000067;28;20042;-63
2023/10/01 05:43:51;;;;;;;2.05;1.02;;;15.60;99.90;;;;;;5003449;28;20046;-64
2023/10/01 05:46:18;;;;;;;0.28;0.25;;;15.60;99.90;;;;;;5018942;28;20078;-64
2023/10/01 05:48:49;;;;;;;0.22;0.22;;;15.60;99.90;;;;;;4993271;28;20129;-64
2023/10/01 05:51:15;;;;;;;0.17;0.17;;;15.60;99.90;;;;;;5002104;28;20045;-64
2023/10/01 05:53:42;;;;;;;0.03;0.03;;;15.50;99.90;;;;;;5001523;28;20520;-64
2023/10/01 05:56:10;;;;;;;0.52;0.35;;;15.50;99.90;;;;;;5000251;28;20052;-64
2023/10/01 05:58:36;;;;;;;0.00;0.00;;;15.50;99.90;;;;;;5009608;28;20052;-64
2023/10/01 06:01:05;;;;;;;0.00;0.00;;;15.50;99.90;;;;;;5009486;28;20050;-64
2023/10/01 06:03:32;;;;;;;0.03;0.03;;;15.60;99.90;;;;;;5007879;28;20086;-64
2023/10/01 06:05:58;;;;;;;0.15;0.15;;;15.60;99.90;;;;;;5003743;28;20077;-64
2023/10/01 06:08:32;;;;;;;2.83;1.25;;;15.50;99.90;;;;;;5010915;28;20085;-64
2023/10/01 06:11:04;;;;;;;0.63;0.30;;;15.60;99.90;;;;;;5013046;28;20509;-64
2023/10/01 06:13:31;;;;;;;0.00;0.00;;;15.50;99.90;;;;;;5005947;28;20168;-64
2023/10/01 06:16:16;;;;;;;0.10;0.10;;;15.60;99.90;;;;;;4998736;28;20043;-64
2023/10/01 06:18:49;;;;;;;0.20;0.20;;;15.50;99.90;;;;;;5009922;28;20050;-64
2023/10/01 06:21:25;;;;;;;;;;;15.50;99.90;;;;;;5004433;28;20133;-64
2023/10/01 06:23:51;;;;;;;0.70;0.55;;;15.50;99.90;;;;;;5002887;28;20395;-64
2023/10/01 06:26:29;;;;;;;0.08;0.08;;;15.50;99.90;;;;;;5012571;28;20049;-64
2023/10/01 06:28:56;;;;;;;6.40;1.02;;;15.60;99.90;;;;;;4999232;28;20129;-64
2023/10/01 06:31:23;;;;;;;1.17;1.08;;;15.60;99.90;;;;;;5005657;28;20145;-65
2023/10/01 06:33:53;;;;;;;0.73;0.73;;;15.60;99.90;;;;;;5006243;28;20058;-65
2023/10/01 06:36:21;;;;;;;0.65;0.65;;;15.60;99.90;;;;;;5002232;28;20042;-64
2023/10/01 06:38:49;;;;;;;0.00;0.00;;;15.60;99.90;;;;;;5008870;28;20390;-64
2023/10/01 06:41:25;;;;;;;0.63;0.63;;;15.60;99.90;;;;;;4996320;28;20125;-64
2023/10/01 06:43:54;;;;;;;0.13;0.13;;;15.60;99.90;;;;;;5001403;28;20050;-64
2023/10/01 06:46:30;;;;;;;0.00;0.00;;;15.70;99.90;;;;;;5003857;28;20101;-64
2023/10/01 06:48:58;;;;;;;0.30;0.30;;;15.60;99.90;;;;;;5008879;28;20046;-64
2023/10/01 06:51:26;;;;;;;4.97;1.23;;;15.60;99.90;;;;;;5012224;28;20128;-64
2023/10/01 06:53:58;;;;;;;0.28;0.28;;;15.70;99.90;;;;;;5009840;28;20056;-64
2023/10/01 06:56:26;;;;;;;0.30;0.30;;;15.70;99.90;;;;;;5003665;28;20073;-64
2023/10/01 07:01:35;;;;;;;0.10;0.10;;;15.80;99.90;;;;;;5006984;28;20800;-64
2023/10/01 07:04:05;;;;;;;0.00;0.00;;;15.70;99.90;;;;;;5009386;28;20045;-64
2023/10/01 07:06:36;;;;;;;0.00;0.00;;;15.80;99.90;;;;;;4997074;28;20487;-64
2023/10/01 07:09:06;;;;;;;0.00;0.00;;;15.80;99.90;;;;;;5009270;28;20413;-65
2023/10/01 07:11:33;;;;;;;0.28;0.28;;;15.80;99.90;;;;;;4997409;28;20042;-64
2023/10/01 07:14:01;;;;;;;0.17;0.17;;;15.80;99.90;;;;;;5007686;28;20364;-64
2023/10/01 07:16:39;;;;;;;0.10;0.10;;;15.80;99.90;;;;;;5007522;28;20042;-64
2023/10/01 07:19:05;;;;;;;0.65;0.52;;;15.80;99.90;;;;;;5001855;28;20046;-64
2023/10/01 07:21:34;;;;;;;0.00;0.00;;;15.90;99.90;;;;;;5005811;28;20466;-64
2023/10/01 07:24:01;;;;;;;1.55;0.82;;;15.90;99.90;;;;;;5004061;28;20049;-64
2023/10/01 07:26:28;;;;;;;0.00;0.00;;;15.90;99.90;;;;;;5003772;28;20041;-64
2023/10/01 07:28:59;;;;;;;0.43;0.43;;;15.90;99.90;;;;;;5008167;28;20061;-64
2023/10/01 07:31:25;;;;;;;1.65;0.40;;;16.00;99.90;;;;;;5006816;28;20050;-64
2023/10/01 07:33:55;;;;;;;0.43;0.43;;;16.00;99.90;;;;;;5007386;28;20391;-64
2023/10/01 07:36:23;;;;;;;0.28;0.28;;;16.00;99.90;;;;;;4999221;28;20584;-64
2023/10/01 07:38:52;;;;;;;0.70;0.70;;;16.00;99.90;;;;;;5006092;28;20046;-65
2023/10/01 07:41:20;;;;;;;0.10;0.10;;;16.00;99.90;;;;;;5006177;28;20046;-65
2023/10/01 07:43:46;;;;;;;0.20;0.20;;;16.00;99.90;;;;;;5005735;28;20050;-64
2023/10/01 07:46:18;;;;;;;0.10;0.10;;;16.00;99.90;;;;;;5009147;28;20486;-64
2023/10/01 07:48:48;;;;;;;0.20;0.20;;;16.00;99.90;;;;;;5003802;28;20069;-64
2023/10/01 07:51:23;;;;;;;0.00;0.00;;;16.00;99.90;;;;;;5020004;28;20053;-65
2023/10/01 07:53:51;;;;;;;0.47;0.47;;;16.00;99.90;;;;;;5004398;28;20517;-65
2023/10/01 07:56:21;;;;;;;0.20;0.20;;;16.10;99.90;;;;;;5008171;28;20041;-64
2023/10/01 07:58:57;;;;;;;0.10;0.10;;;16.10;99.90;;;;;;4999800;28;20046;-64
2023/10/01 08:01:42;;;;;;;0.55;0.55;;;16.10;99.90;;;;;;4999640;28;20045;-64
2023/10/01 08:04:38;;;;;;;0.00;0.00;;;16.20;99.90;;;;;;5003209;28;20556;-64
2023/10/01 08:06:56;;;;;;;0.65;0.65;;;16.20;99.90;;;;;;5006256;28;20128;-63
2023/10/01 08:09:22;;;;;;;0.52;0.52;;;16.30;99.90;;;;;;5007965;28;20120;-63
2023/10/01 08:12:06;;;;;;;0.00;0.00;;;16.40;99.90;;;;;;5005901;28;20049;-64
2023/10/01 08:14:35;;;;;;;0.10;0.10;;;16.50;99.90;;;;;;4999977;28;20067;-64
2023/10/01 08:17:03;;;;;;;0.10;0.10;;;16.50;99.90;;;;;;5009289;28;20393;-64
2023/10/01 08:19:44;;;;;;;0.77;0.77;;;16.60;99.90;;;;;;5007085;28;20541;-63
2023/10/01 08:22:22;;;;;;;14.55;2.42;;;16.70;99.90;;;;;;4997163;28;20057;-65
2023/10/01 08:24:49;;;;;;;0.10;0.10;;;16.90;99.90;;;;;;5000906;28;20046;-64
2023/10/01 08:27:34;;;;;;;0.40;0.30;;;17.00;99.90;;;;;;5000528;28;20050;-64
2023/10/01 08:30:18;;;;;;;1.27;1.17;;;17.00;99.90;;;;;;5008921;28;20062;-64
2023/10/01 08:32:53;;;;;;;0.10;0.10;;;17.20;99.90;;;;;;5009274;28;20054;-63
2023/10/01 08:35:34;;;;;;;0.38;0.38;;;17.30;99.90;;;;;;5001285;28;20117;-64
2023/10/01 08:38:00;;;;;;;0.20;0.20;;;17.40;99.90;;;;;;5003727;28;20398;-64
2023/10/01 08:40:29;;;;;;;7.70;1.25;;;17.60;99.90;;;;;;5000259;28;20093;-64
2023/10/01 08:42:58;;;;;;;1.85;1.75;;;17.60;99.90;;;;;;4994853;28;20441;-64
2023/10/01 08:45:37;;;;;;;1.55;1.45;;;17.70;99.90;;;;;;5002232;28;20049;-64
2023/10/01 08:48:07;;;;;;;8.52;1.75;;;17.70;99.90;;;;;;5001566;28;20052;-64
2023/10/01 08:50:36;;;;;;;0.75;0.52;;;17.70;99.90;;;;;;5009494;28;20107;-64
2023/10/01 08:53:09;;;;;;;8.60;0.52;;;17.80;99.90;;;;;;5008062;28;20076;-64
2023/10/01 08:55:40;;;;;;;3.72;1.25;;;17.80;99.90;;;;;;5000405;28;20049;-64
2023/10/01 08:58:15;;;;;;;1.08;0.70;;;17.90;99.90;;;;;;5006543;28;20049;-64
2023/10/01 09:00:56;;;;;;;2.70;0.68;;;17.90;99.90;;;;;;5007230;28;20034;-64
2023/10/01 09:03:26;;;;;;;4.22;1.80;;;18.00;99.90;;;;;;5006286;28;20049;-64
2023/10/01 09:06:08;;;;;;;0.43;0.43;;;18.00;99.90;;;;;;5004260;28;20385;-64
2023/10/01 09:08:45;;;;;;;0.57;0.57;;;18.10;99.90;;;;;;4998567;28;20056;-64
2023/10/01 09:11:15;;;;;;;1.63;1.38;;;18.00;99.90;;;;;;5001788;28;20085;-64
2023/10/01 09:13:58;;;;;;;0.47;0.47;;;18.10;99.90;;;;;;5006914;28;20042;-64
2023/10/01 09:16:31;;;;;;;0.73;0.68;;;18.30;99.90;;;;;;5007652;28;20049;-63
2023/10/01 09:19:03;;;;;;;;;;;18.30;99.90;;;;;;4996274;28;20081;-64
2023/10/01 09:21:38;;;;;;;0.10;0.10;;;18.40;99.90;;;;;;5005747;28;19979;-63
2023/10/01 09:24:31;;;;;;;1.55;1.17;;;18.30;99.90;;;;;;5003548;28;20053;-63
2023/10/01 09:27:09;;;;;;;0.28;0.28;;;18.20;99.90;;;;;;5002354;28;20042;-64
2023/10/01 09:29:45;;;;;;;2.33;1.38;;;18.40;99.90;;;;;;5007119;28;20065;-64
2023/10/01 09:32:13;;;;;;;0.32;0.32;;;18.40;99.90;;;;;;4998150;28;20057;-64
2023/10/01 09:34:53;;;;;;;0.98;0.55;;;18.40;99.90;;;;;;5004604;28;20081;-64
2023/10/01 09:37:35;;;;;;;1.73;0.80;;;18.40;99.90;;;;;;5000403;28;20046;-64
2023/10/01 09:40:05;;;;;;;0.15;0.15;;;18.50;99.90;;;;;;5001625;28;20048;-64
2023/10/01 09:42:44;;;;;;;0.77;0.77;;;18.90;99.90;;;;;;4997493;28;20148;-64
2023/10/01 09:45:26;;;;;;;0.10;0.10;;;19.00;99.90;;;;;;4992996;28;20038;-65
2023/10/01 09:48:28;;;;;;;13.95;0.93;;;19.40;99.90;;;;;;5005557;28;20049;-64
2023/10/01 09:51:00;;;;;;;0.60;0.47;;;19.70;99.90;;;;;;5000966;28;20049;-64
2023/10/01 09:53:31;;;;;;;1.08;0.98;;;20.00;99.90;;;;;;5004716;28;20053;-65
2023/10/01 09:55:59;;;;;;;4.57;1.85;;;20.20;99.90;;;;;;4999853;28;20046;-64
2023/10/01 09:58:25;;;;;;;0.08;0.08;;;20.40;99.90;;;;;;5005786;28;20049;-64
2023/10/01 10:00:55;;;;;;;0.00;0.00;;;20.60;99.90;;;;;;4991937;28;20070;-64
2023/10/01 10:03:21;;;;;;;1.30;0.85;;;20.60;99.90;;;;;;5002632;28;20097;-65
2023/10/01 10:05:48;;;;;;;0.15;0.15;;;20.60;99.90;;;;;;5008321;28;20042;-65
2023/10/01 10:08:26;;;;;;;0.43;0.43;;;20.60;99.90;;;;;;4994667;28;20100;-64
2023/10/01 10:10:55;;;;;;;0.80;0.65;;;20.60;99.90;;;;;;5005341;28;20038;-64
2023/10/01 10:13:46;;;;;;;0.68;0.68;;;20.40;99.90;;;;;;5010990;28;20065;-64
2023/10/01 10:16:32;;;;;;;0.57;0.57;;;20.30;99.90;;;;;;5002781;28;20054;-64
2023/10/01 10:19:15;;;;;;;0.00;0.00;;;20.20;99.90;;;;;;5005038;28;20053;-65
2023/10/01 10:24:31;;;;;;;7.18;1.05;;;19.80;99.90;;;;;;5003040;28;20137;-64
2023/10/01 10:27:00;;;;;;;1.73;0.68;;;19.70;99.90;;;;;;5001937;28;20053;-65
2023/10/01 10:29:56;;;;;;;2.05;0.95;;;19.70;99.90;;;;;;4994841;28;20051;-65
2023/10/01 10:32:26;;;;;;;0.50;0.50;;;19.60;99.90;;;;;;5004089;28;20069;-64
2023/10/01 10:35:15;;;;;;;0.85;0.52;;;19.60;99.90;;;;;;4992885;28;20508;-65
2023/10/01 10:37:56;;;;;;;1.45;1.17;;;19.60;99.90;;;;;;4987917;28;20054;-65
2023/10/01 10:40:22;;;;;;;1.35;0.75;;;19.60;99.90;;;;;;5003251;28;20056;-64
2023/10/01 10:42:57;;;;;;;0.30;0.30;;;19.70;99.90;;;;;;4998891;28;20088;-64
2023/10/01 10:45:29;;;;;;;0.47;0.30;;;19.70;99.90;;;;;;4997729;28;20458;-64
2023/10/01 10:48:03;;;;;;;0.63;0.63;;;19.80;99.90;;;;;;5007548;28;20080;-64
2023/10/01 10:50:53;;;;;;;0.50;0.50;;;20.00;99.90;;;;;;5008436;28;20041;-64
2023/10/01 10:53:24;;;;;;;4.60;1.45;;;20.10;99.90;;;;;;5000025;28;20057;-64
2023/10/01 10:56:04;;;;;;;0.45;0.45;;;20.10;99.90;;;;;;5009133;28;20572;-64
2023/10/01 10:58:40;;;;;;;1.20;1.20;;;20.10;99.90;;;;;;5002848;28;20053;-64
2023/10/01 11:01:22;;;;;;;0.60;0.60;;;20.20;99.90;;;;;;5003160;28;20125;-64
2023/10/01 11:03:57;;;;;;;2.53;1.35;;;20.20;99.90;;;;;;5002872;28;20505;-64
2023/10/01 11:06:44;;;;;;;1.02;0.63;;;20.20;99.90;;;;;;4997605;28;20060;-64
2023/10/01 11:09:27;;;;;;;0.40;0.40;;;20.20;99.90;;;;;;5008321;28;20432;-64
2023/10/01 11:12:22;;;;;;;0.90;0.75;;;20.30;99.90;;;;;;5009080;28;20050;-64
2023/10/01 11:17:47;;;;;;;25.75;4.03;;;20.30;99.90;;;;;;5007953;28;20042;-64
2023/10/01 11:20:22;;;;;;;2.53;1.50;;;20.40;99.90;;;;;;5009682;28;20050;-64
2023/10/01 11:22:54;;;;;;;0.25;0.25;;;20.30;99.90;;;;;;5002449;28;20379;-65
2023/10/01 11:25:22;;;;;;;0.65;0.40;;;20.30;99.90;;;;;;5010036;28;20083;-64
2023/10/01 11:28:06;;;;;;;0.90;0.85;;;20.30;99.90;;;;;;5005554;28;20042;-64
2023/10/01 11:30:44;;;;;;;0.40;0.40;;;20.40;99.90;;;;;;5004955;28;20045;-64
2023/10/01 11:35:38;;;;;;;0.77;0.77;;;20.60;99.90;;;;;;4997004;28;20572;-64
2023/10/01 11:38:12;;;;;;;0.57;0.57;;;20.60;99.90;;;;;;5010700;28;20528;-64
2023/10/01 11:43:32;;;;;;;0.10;0.10;;;20.60;99.90;;;;;;4997257;28;20093;-64
2023/10/01 11:46:23;;;;;;;1.15;0.25;;;20.70;99.90;;;;;;5009644;28;20045;-65
2023/10/01 11:49:05;;;;;;;2.55;1.38;;;20.90;99.90;;;;;;5008492;28;20057;-64
2023/10/01 11:51:38;;;;;;;0.82;0.73;;;21.00;99.90;;;;;;5003213;28;20052;-64
2023/10/01 11:54:10;;;;;;;6.82;2.25;;;21.00;99.90;;;;;;5009478;28;20057;-64
2023/10/01 11:56:45;;;;;;;0.47;0.47;;;21.00;99.90;;;;;;5008902;28;20049;-64
2023/10/01 11:59:19;;;;;;;3.45;0.68;;;21.00;99.90;;;;;;5004558;28;20038;-64
2023/10/01 12:01:47;;;;;;;0.73;0.50;;;21.20;99.90;;;;;;4999880;28;20120;-64
2023/10/01 12:04:24;;;;;;;9.73;0.75;;;21.40;99.90;;;;;;5004230;28;20042;-64
2023/10/01 12:06:51;;;;;;;0.30;0.30;;;21.70;99.90;;;;;;5006973;28;20058;-64
2023/10/01 12:09:18;;;;;;;0.30;0.30;;;21.90;99.90;;;;;;5003365;28;20046;-64
2023/10/01 12:12:02;;;;;;;1.20;1.05;;;21.90;99.90;;;;;;5007457;28;20046;-65
2023/10/01 12:14:28;;;;;;;0.52;0.52;;;21.80;99.90;;;;;;5007475;28;20196;-65
2023/10/01 12:16:56;;;;;;;0.20;0.20;;;21.40;99.90;;;;;;4990656;28;20054;-64
2023/10/01 12:19:25;;;;;;;0.30;0.30;;;21.30;99.90;;;;;;5006014;28;20513;-64
2023/10/01 12:22:06;;;;;;;2.92;0.63;;;21.20;99.90;;;;;;4996913;28;20104;-64
2023/10/01 12:24:44;;;;;;;0.50;0.47;;;21.00;99.90;;;;;;5006439;28;20073;-64
2023/10/01 12:27:11;;;;;;;2.05;1.35;;;20.90;99.90;;;;;;4997455;28;20037;-65
2023/10/01 12:29:44;;;;;;;0.43;0.43;;;20.80;99.90;;;;;;4996284;28;20132;-64
2023/10/01 12:32:14;;;;;;;0.52;0.52;;;20.80;99.90;;;;;;5001591;28;20100;-64
2023/10/01 12:34:43;;;;;;;1.10;1.02;;;20.80;99.90;;;;;;4995718;28;20042;-66
2023/10/01 12:37:35;;;;;;;2.85;2.58;;;20.70;99.90;;;;;;5005532;28;20496;-65
2023/10/01 12:40:16;;;;;;;0.75;0.75;;;20.80;99.90;;;;;;5010046;28;20188;-65
2023/10/01 12:42:50;;;;;;;0.70;0.45;;;20.90;99.90;;;;;;5002801;28;20482;-65
2023/10/01 12:45:27;;;;;;;2.38;1.58;;;21.00;99.90;;;;;;5006535;28;20038;-65
2023/10/01 12:47:53;;;;;;;0.10;0.10;;;21.10;99.90;;;;;;4994432;28;20047;-65
2023/10/01 12:50:26;;;;;;;0.85;0.85;;;21.10;99.90;;;;;;4999157;28;20057;-65
2023/10/01 12:53:18;;;;;;;6.43;1.90;;;21.10;99.90;;;;;;4997739;28;20093;-65
2023/10/01 12:55:56;;;;;;;4.20;0.88;;;21.10;99.90;;;;;;5009509;28;20045;-65
2023/10/01 12:58:35;;;;;;;0.80;0.75;;;21.20;99.90;;;;;;5000380;28;20054;-65
2023/10/01 13:01:05;;;;;;;0.40;0.40;;;21.20;99.90;;;;;;5002923;28;20422;-66
2023/10/01 13:03:30;;;;;;;0.40;0.40;;;21.30;99.90;;;;;;5003375;28;20386;-65
2023/10/01 13:06:05;;;;;;;2.72;0.77;;;21.30;99.90;;;;;;5003422;28;20085;-65
2023/10/01 13:08:31;;;;;;;3.63;2.72;;;21.30;99.90;;;;;;4997480;28;20054;-65
2023/10/01 13:10:57;;;;;;;6.18;1.88;;;21.20;99.90;;;;;;5004408;28;20132;-65
2023/10/01 13:13:30;;;;;;;0.20;0.20;;;21.10;99.90;;;;;;5008195;28;20069;-65
2023/10/01 13:16:00;;;;;;;3.88;1.27;;;21.30;99.90;;;;;;5009270;28;20046;-65
2023/10/01 13:18:32;;;;;;;0.32;0.32;;;21.50;99.90;;;;;;4996069;28;20569;-66
2023/10/01 13:21:06;;;;;;;3.13;1.95;;;21.70;99.90;;;;;;5000565;28;20510;-66
2023/10/01 13:23:41;;;;;;;0.20;0.20;;;21.80;99.90;;;;;;5002629;28;20050;-65
2023/10/01 13:26:24;;;;;;;1.17;0.77;;;22.30;99.90;;;;;;4998484;28;20053;-66
2023/10/01 13:28:53;;;;;;;0.32;0.20;;;22.60;99.90;;;;;;5001519;28;20072;-65
2023/10/01 14:09:50;;;;;;;2.28;1.40;;;21.80;99.90;;;;;;5004295;28;20413;-65
2023/10/01 14:15:21;;;;;;;4.70;0.88;;;21.80;99.90;;;;;;4995587;28;20042;-65
2023/10/01 14:17:52;;;;;;;5.05;0.50;;;21.80;99.90;;;;;;4994860;28;20054;-65
2023/10/01 14:20:37;;;;;;;0.45;0.45;;;21.70;99.90;;;;;;5005898;28;20547;-65